<?xml version="1.0" encoding="UTF-8" standalone="no" ?>
<gpx xmlns="http://www.topografix.com/GPX/1/1" xmlns:xsi="http://www.w3.org/2001/XMLSchema-instance" xsi:schemaLocation="http://www.topografix.com/GPX/1/1 http://www.topografix.com/GPX/1/1/gpx.xsd" version="1.1" creator="VisuGPX - https://www.visugpx.com">
  <metadata>
    <name>L'Isle en Dodon 2018-11-21</name>
    <desc><![CDATA[
]]></desc>
  </metadata>
  <trk>
    <name><![CDATA[L'Isle en Dodon 2018-11-21]]></name>
    <trkseg>
      <trkpt lat="43.38141" lon="0.83637">
        <ele>216.2</ele>
        <time>2018-11-21T09:28:1.092Z</time>
      </trkpt>
      <trkpt lat="43.3814" lon="0.83637">
        <ele>214.1</ele>
        <time>2018-11-21T09:28:3.000Z</time>
      </trkpt>
      <trkpt lat="43.38104" lon="0.8363">
        <ele>184.6</ele>
        <time>2018-11-21T09:30:1.000Z</time>
      </trkpt>
      <trkpt lat="43.38075" lon="0.83599">
        <ele>184.7</ele>
        <time>2018-11-21T09:30:52.000Z</time>
      </trkpt>
      <trkpt lat="43.38065" lon="0.83548">
        <ele>183.9</ele>
        <time>2018-11-21T09:31:39.000Z</time>
      </trkpt>
      <trkpt lat="43.38039" lon="0.83511">
        <ele>184.9</ele>
        <time>2018-11-21T09:32:26.000Z</time>
      </trkpt>
      <trkpt lat="43.38002" lon="0.83513">
        <ele>184.7</ele>
        <time>2018-11-21T09:33:1.000Z</time>
      </trkpt>
      <trkpt lat="43.37966" lon="0.83507">
        <ele>184.7</ele>
        <time>2018-11-21T09:33:32.000Z</time>
      </trkpt>
      <trkpt lat="43.37929" lon="0.83503">
        <ele>185.3</ele>
        <time>2018-11-21T09:34:8.000Z</time>
      </trkpt>
      <trkpt lat="43.37892" lon="0.83502">
        <ele>185.1</ele>
        <time>2018-11-21T09:34:40.000Z</time>
      </trkpt>
      <trkpt lat="43.37856" lon="0.83499">
        <ele>185.3</ele>
        <time>2018-11-21T09:35:6.000Z</time>
      </trkpt>
      <trkpt lat="43.3784" lon="0.83454">
        <ele>185.7</ele>
        <time>2018-11-21T09:35:52.000Z</time>
      </trkpt>
      <trkpt lat="43.3785" lon="0.83406">
        <ele>185.9</ele>
        <time>2018-11-21T09:36:21.000Z</time>
      </trkpt>
      <trkpt lat="43.37861" lon="0.83358">
        <ele>186.7</ele>
        <time>2018-11-21T09:36:54.000Z</time>
      </trkpt>
      <trkpt lat="43.37873" lon="0.83311">
        <ele>186.9</ele>
        <time>2018-11-21T09:37:26.000Z</time>
      </trkpt>
      <trkpt lat="43.3789" lon="0.83266">
        <ele>187.3</ele>
        <time>2018-11-21T09:37:56.000Z</time>
      </trkpt>
      <trkpt lat="43.37907" lon="0.83222">
        <ele>187.6</ele>
        <time>2018-11-21T09:38:30.000Z</time>
      </trkpt>
      <trkpt lat="43.37905" lon="0.83172">
        <ele>189.2</ele>
        <time>2018-11-21T09:39:6.000Z</time>
      </trkpt>
      <trkpt lat="43.37875" lon="0.83142">
        <ele>190.5</ele>
        <time>2018-11-21T09:39:41.000Z</time>
      </trkpt>
      <trkpt lat="43.37848" lon="0.83108">
        <ele>191.3</ele>
        <time>2018-11-21T09:40:15.000Z</time>
      </trkpt>
      <trkpt lat="43.37836" lon="0.83061">
        <ele>191.9</ele>
        <time>2018-11-21T09:40:51.000Z</time>
      </trkpt>
      <trkpt lat="43.37845" lon="0.83012">
        <ele>192.3</ele>
        <time>2018-11-21T09:41:24.000Z</time>
      </trkpt>
      <trkpt lat="43.37855" lon="0.82964">
        <ele>193.6</ele>
        <time>2018-11-21T09:41:59.000Z</time>
      </trkpt>
      <trkpt lat="43.37864" lon="0.82914">
        <ele>195.8</ele>
        <time>2018-11-21T09:42:29.000Z</time>
      </trkpt>
      <trkpt lat="43.37868" lon="0.82863">
        <ele>197.6</ele>
        <time>2018-11-21T09:42:58.000Z</time>
      </trkpt>
      <trkpt lat="43.37855" lon="0.82816">
        <ele>199.4</ele>
        <time>2018-11-21T09:43:32.000Z</time>
      </trkpt>
      <trkpt lat="43.37855" lon="0.82767">
        <ele>201.4</ele>
        <time>2018-11-21T09:44:9.000Z</time>
      </trkpt>
      <trkpt lat="43.37867" lon="0.8272">
        <ele>202.9</ele>
        <time>2018-11-21T09:44:48.000Z</time>
      </trkpt>
      <trkpt lat="43.37884" lon="0.82676">
        <ele>205.1</ele>
        <time>2018-11-21T09:45:28.000Z</time>
      </trkpt>
      <trkpt lat="43.37906" lon="0.82635">
        <ele>206.6</ele>
        <time>2018-11-21T09:46:2.000Z</time>
      </trkpt>
      <trkpt lat="43.37922" lon="0.82591">
        <ele>207.6</ele>
        <time>2018-11-21T09:46:38.000Z</time>
      </trkpt>
      <trkpt lat="43.37941" lon="0.82548">
        <ele>209.3</ele>
        <time>2018-11-21T09:47:12.000Z</time>
      </trkpt>
      <trkpt lat="43.37959" lon="0.82505">
        <ele>211.1</ele>
        <time>2018-11-21T09:47:54.000Z</time>
      </trkpt>
      <trkpt lat="43.37978" lon="0.82462">
        <ele>213.3</ele>
        <time>2018-11-21T09:48:29.000Z</time>
      </trkpt>
      <trkpt lat="43.38001" lon="0.82425">
        <ele>215.1</ele>
        <time>2018-11-21T09:49:4.000Z</time>
      </trkpt>
      <trkpt lat="43.38022" lon="0.82383">
        <ele>217.1</ele>
        <time>2018-11-21T09:49:39.000Z</time>
      </trkpt>
      <trkpt lat="43.38036" lon="0.82335">
        <ele>221.7</ele>
        <time>2018-11-21T09:50:26.000Z</time>
      </trkpt>
      <trkpt lat="43.38051" lon="0.82289">
        <ele>226.1</ele>
        <time>2018-11-21T09:51:8.000Z</time>
      </trkpt>
      <trkpt lat="43.38068" lon="0.82245">
        <ele>230.9</ele>
        <time>2018-11-21T09:51:46.000Z</time>
      </trkpt>
      <trkpt lat="43.38089" lon="0.82203">
        <ele>236.3</ele>
        <time>2018-11-21T09:52:27.000Z</time>
      </trkpt>
      <trkpt lat="43.38105" lon="0.82159">
        <ele>243.1</ele>
        <time>2018-11-21T09:55:21.000Z</time>
      </trkpt>
      <trkpt lat="43.38111" lon="0.82109">
        <ele>245.7</ele>
        <time>2018-11-21T09:55:59.000Z</time>
      </trkpt>
      <trkpt lat="43.38115" lon="0.82059">
        <ele>247.8</ele>
        <time>2018-11-21T09:56:35.000Z</time>
      </trkpt>
      <trkpt lat="43.38119" lon="0.82008">
        <ele>250.5</ele>
        <time>2018-11-21T09:57:10.000Z</time>
      </trkpt>
      <trkpt lat="43.38122" lon="0.81958">
        <ele>252.3</ele>
        <time>2018-11-21T09:57:45.000Z</time>
      </trkpt>
      <trkpt lat="43.3813" lon="0.81909">
        <ele>253.7</ele>
        <time>2018-11-21T09:58:17.000Z</time>
      </trkpt>
      <trkpt lat="43.38139" lon="0.8186">
        <ele>254.9</ele>
        <time>2018-11-21T09:58:48.000Z</time>
      </trkpt>
      <trkpt lat="43.38147" lon="0.81811">
        <ele>256.9</ele>
        <time>2018-11-21T09:59:22.000Z</time>
      </trkpt>
      <trkpt lat="43.38158" lon="0.81763">
        <ele>259.4</ele>
        <time>2018-11-21T09:59:57.000Z</time>
      </trkpt>
      <trkpt lat="43.38166" lon="0.81714">
        <ele>262.7</ele>
        <time>2018-11-21T10:00:35.000Z</time>
      </trkpt>
      <trkpt lat="43.38169" lon="0.81664">
        <ele>266.7</ele>
        <time>2018-11-21T10:01:13.000Z</time>
      </trkpt>
      <trkpt lat="43.38184" lon="0.81618">
        <ele>271</ele>
        <time>2018-11-21T10:01:53.000Z</time>
      </trkpt>
      <trkpt lat="43.38221" lon="0.81618">
        <ele>274</ele>
        <time>2018-11-21T10:02:29.000Z</time>
      </trkpt>
      <trkpt lat="43.38258" lon="0.81624">
        <ele>273.8</ele>
        <time>2018-11-21T10:03:16.000Z</time>
      </trkpt>
      <trkpt lat="43.38282" lon="0.81587">
        <ele>273.5</ele>
        <time>2018-11-21T10:03:52.000Z</time>
      </trkpt>
      <trkpt lat="43.38306" lon="0.8155">
        <ele>269.8</ele>
        <time>2018-11-21T10:04:32.000Z</time>
      </trkpt>
      <trkpt lat="43.38327" lon="0.81509">
        <ele>264.7</ele>
        <time>2018-11-21T10:05:7.000Z</time>
      </trkpt>
      <trkpt lat="43.38347" lon="0.81466">
        <ele>260.1</ele>
        <time>2018-11-21T10:05:39.000Z</time>
      </trkpt>
      <trkpt lat="43.38365" lon="0.81422">
        <ele>256.2</ele>
        <time>2018-11-21T10:06:12.000Z</time>
      </trkpt>
      <trkpt lat="43.38381" lon="0.81377">
        <ele>252</ele>
        <time>2018-11-21T10:06:49.000Z</time>
      </trkpt>
      <trkpt lat="43.38394" lon="0.81331">
        <ele>247.3</ele>
        <time>2018-11-21T10:07:20.000Z</time>
      </trkpt>
      <trkpt lat="43.38415" lon="0.8129">
        <ele>244</ele>
        <time>2018-11-21T10:07:54.000Z</time>
      </trkpt>
      <trkpt lat="43.38434" lon="0.81248">
        <ele>240.6</ele>
        <time>2018-11-21T10:08:29.000Z</time>
      </trkpt>
      <trkpt lat="43.38458" lon="0.8121">
        <ele>237.8</ele>
        <time>2018-11-21T10:09:3.000Z</time>
      </trkpt>
      <trkpt lat="43.38487" lon="0.81177">
        <ele>235.4</ele>
        <time>2018-11-21T10:09:37.000Z</time>
      </trkpt>
      <trkpt lat="43.38509" lon="0.81136">
        <ele>234.3</ele>
        <time>2018-11-21T10:10:8.000Z</time>
      </trkpt>
      <trkpt lat="43.38525" lon="0.81091">
        <ele>231.9</ele>
        <time>2018-11-21T10:10:38.000Z</time>
      </trkpt>
      <trkpt lat="43.38529" lon="0.81041">
        <ele>230.3</ele>
        <time>2018-11-21T10:11:11.000Z</time>
      </trkpt>
      <trkpt lat="43.38535" lon="0.80991">
        <ele>227.8</ele>
        <time>2018-11-21T10:11:46.000Z</time>
      </trkpt>
      <trkpt lat="43.38543" lon="0.80943">
        <ele>225.1</ele>
        <time>2018-11-21T10:12:24.000Z</time>
      </trkpt>
      <trkpt lat="43.38546" lon="0.80892">
        <ele>225.7</ele>
        <time>2018-11-21T10:12:57.000Z</time>
      </trkpt>
      <trkpt lat="43.38548" lon="0.80842">
        <ele>225.8</ele>
        <time>2018-11-21T10:13:25.000Z</time>
      </trkpt>
      <trkpt lat="43.38551" lon="0.80792">
        <ele>226</ele>
        <time>2018-11-21T10:13:56.000Z</time>
      </trkpt>
      <trkpt lat="43.38554" lon="0.80741">
        <ele>224.3</ele>
        <time>2018-11-21T10:14:24.000Z</time>
      </trkpt>
      <trkpt lat="43.38567" lon="0.80694">
        <ele>221.7</ele>
        <time>2018-11-21T10:14:56.000Z</time>
      </trkpt>
      <trkpt lat="43.38586" lon="0.80652">
        <ele>218.7</ele>
        <time>2018-11-21T10:15:25.000Z</time>
      </trkpt>
      <trkpt lat="43.38578" lon="0.80603">
        <ele>214.8</ele>
        <time>2018-11-21T10:15:57.000Z</time>
      </trkpt>
      <trkpt lat="43.38578" lon="0.80552">
        <ele>209.6</ele>
        <time>2018-11-21T10:16:27.000Z</time>
      </trkpt>
      <trkpt lat="43.38573" lon="0.80501">
        <ele>206.4</ele>
        <time>2018-11-21T10:17:1.000Z</time>
      </trkpt>
      <trkpt lat="43.38562" lon="0.80453">
        <ele>205.3</ele>
        <time>2018-11-21T10:17:32.000Z</time>
      </trkpt>
      <trkpt lat="43.38548" lon="0.80407">
        <ele>204.8</ele>
        <time>2018-11-21T10:18:4.000Z</time>
      </trkpt>
      <trkpt lat="43.38536" lon="0.8036">
        <ele>205</ele>
        <time>2018-11-21T10:21:20.000Z</time>
      </trkpt>
      <trkpt lat="43.38563" lon="0.80326">
        <ele>204.4</ele>
        <time>2018-11-21T10:21:55.000Z</time>
      </trkpt>
      <trkpt lat="43.38591" lon="0.80294">
        <ele>203.6</ele>
        <time>2018-11-21T10:22:29.000Z</time>
      </trkpt>
      <trkpt lat="43.38616" lon="0.80258">
        <ele>202.8</ele>
        <time>2018-11-21T10:22:55.000Z</time>
      </trkpt>
      <trkpt lat="43.38639" lon="0.80219">
        <ele>202.8</ele>
        <time>2018-11-21T10:23:25.000Z</time>
      </trkpt>
      <trkpt lat="43.38656" lon="0.80176">
        <ele>203.9</ele>
        <time>2018-11-21T10:23:56.000Z</time>
      </trkpt>
      <trkpt lat="43.38671" lon="0.80129">
        <ele>204.9</ele>
        <time>2018-11-21T10:24:25.000Z</time>
      </trkpt>
      <trkpt lat="43.38688" lon="0.80084">
        <ele>206.8</ele>
        <time>2018-11-21T10:24:58.000Z</time>
      </trkpt>
      <trkpt lat="43.38705" lon="0.8004">
        <ele>209.5</ele>
        <time>2018-11-21T10:25:28.000Z</time>
      </trkpt>
      <trkpt lat="43.38726" lon="0.79998">
        <ele>211.9</ele>
        <time>2018-11-21T10:25:59.000Z</time>
      </trkpt>
      <trkpt lat="43.38701" lon="0.79961">
        <ele>214.1</ele>
        <time>2018-11-21T10:26:57.000Z</time>
      </trkpt>
      <trkpt lat="43.38666" lon="0.79945">
        <ele>214.7</ele>
        <time>2018-11-21T10:27:24.000Z</time>
      </trkpt>
      <trkpt lat="43.3863" lon="0.79929">
        <ele>214.8</ele>
        <time>2018-11-21T10:27:55.000Z</time>
      </trkpt>
      <trkpt lat="43.38596" lon="0.79913">
        <ele>214.8</ele>
        <time>2018-11-21T10:28:25.000Z</time>
      </trkpt>
      <trkpt lat="43.38563" lon="0.79891">
        <ele>215.2</ele>
        <time>2018-11-21T10:28:54.000Z</time>
      </trkpt>
      <trkpt lat="43.3853" lon="0.79869">
        <ele>216.2</ele>
        <time>2018-11-21T10:29:22.000Z</time>
      </trkpt>
      <trkpt lat="43.38499" lon="0.79842">
        <ele>217.3</ele>
        <time>2018-11-21T10:29:52.000Z</time>
      </trkpt>
      <trkpt lat="43.3847" lon="0.7981">
        <ele>218.6</ele>
        <time>2018-11-21T10:30:24.000Z</time>
      </trkpt>
      <trkpt lat="43.38479" lon="0.79761">
        <ele>220.5</ele>
        <time>2018-11-21T10:31:5.000Z</time>
      </trkpt>
      <trkpt lat="43.38513" lon="0.79742">
        <ele>221.6</ele>
        <time>2018-11-21T10:31:45.000Z</time>
      </trkpt>
      <trkpt lat="43.38549" lon="0.7975">
        <ele>221.2</ele>
        <time>2018-11-21T10:32:20.000Z</time>
      </trkpt>
      <trkpt lat="43.38586" lon="0.79757">
        <ele>220.9</ele>
        <time>2018-11-21T10:32:52.000Z</time>
      </trkpt>
      <trkpt lat="43.38622" lon="0.79748">
        <ele>220.9</ele>
        <time>2018-11-21T10:33:23.000Z</time>
      </trkpt>
      <trkpt lat="43.38658" lon="0.79738">
        <ele>222</ele>
        <time>2018-11-21T10:34:0.000Z</time>
      </trkpt>
      <trkpt lat="43.38694" lon="0.79727">
        <ele>222.9</ele>
        <time>2018-11-21T10:34:37.000Z</time>
      </trkpt>
      <trkpt lat="43.38722" lon="0.79693">
        <ele>224.3</ele>
        <time>2018-11-21T10:35:9.000Z</time>
      </trkpt>
      <trkpt lat="43.38741" lon="0.7965">
        <ele>225.3</ele>
        <time>2018-11-21T10:35:40.000Z</time>
      </trkpt>
      <trkpt lat="43.38756" lon="0.79605">
        <ele>226.8</ele>
        <time>2018-11-21T10:36:16.000Z</time>
      </trkpt>
      <trkpt lat="43.38779" lon="0.79565">
        <ele>229.2</ele>
        <time>2018-11-21T10:36:53.000Z</time>
      </trkpt>
      <trkpt lat="43.388" lon="0.79524">
        <ele>231.7</ele>
        <time>2018-11-21T10:37:30.000Z</time>
      </trkpt>
      <trkpt lat="43.38821" lon="0.79484">
        <ele>234.5</ele>
        <time>2018-11-21T10:38:5.000Z</time>
      </trkpt>
      <trkpt lat="43.38809" lon="0.79437">
        <ele>239.4</ele>
        <time>2018-11-21T10:43:33.000Z</time>
      </trkpt>
      <trkpt lat="43.38782" lon="0.794">
        <ele>239.7</ele>
        <time>2018-11-21T10:44:6.000Z</time>
      </trkpt>
      <trkpt lat="43.38755" lon="0.79367">
        <ele>240.8</ele>
        <time>2018-11-21T10:44:34.000Z</time>
      </trkpt>
      <trkpt lat="43.38731" lon="0.79329">
        <ele>241.8</ele>
        <time>2018-11-21T10:45:2.000Z</time>
      </trkpt>
      <trkpt lat="43.38706" lon="0.79292">
        <ele>242</ele>
        <time>2018-11-21T10:45:31.000Z</time>
      </trkpt>
      <trkpt lat="43.38678" lon="0.79258">
        <ele>242</ele>
        <time>2018-11-21T10:45:57.000Z</time>
      </trkpt>
      <trkpt lat="43.38652" lon="0.79224">
        <ele>242.4</ele>
        <time>2018-11-21T10:46:22.000Z</time>
      </trkpt>
      <trkpt lat="43.38666" lon="0.79179">
        <ele>243.3</ele>
        <time>2018-11-21T10:46:56.000Z</time>
      </trkpt>
      <trkpt lat="43.38691" lon="0.79141">
        <ele>240.1</ele>
        <time>2018-11-21T10:47:27.000Z</time>
      </trkpt>
      <trkpt lat="43.38716" lon="0.79105">
        <ele>235.1</ele>
        <time>2018-11-21T10:47:59.000Z</time>
      </trkpt>
      <trkpt lat="43.38745" lon="0.79076">
        <ele>229.8</ele>
        <time>2018-11-21T10:48:28.000Z</time>
      </trkpt>
      <trkpt lat="43.3878" lon="0.7906">
        <ele>223.7</ele>
        <time>2018-11-21T10:49:2.000Z</time>
      </trkpt>
      <trkpt lat="43.38812" lon="0.79036">
        <ele>217.2</ele>
        <time>2018-11-21T10:49:35.000Z</time>
      </trkpt>
      <trkpt lat="43.38833" lon="0.78994">
        <ele>211.6</ele>
        <time>2018-11-21T10:50:9.000Z</time>
      </trkpt>
      <trkpt lat="43.38854" lon="0.78952">
        <ele>207.7</ele>
        <time>2018-11-21T10:50:40.000Z</time>
      </trkpt>
      <trkpt lat="43.38883" lon="0.78922">
        <ele>204.8</ele>
        <time>2018-11-21T10:51:12.000Z</time>
      </trkpt>
      <trkpt lat="43.38873" lon="0.78872">
        <ele>202.2</ele>
        <time>2018-11-21T10:51:50.000Z</time>
      </trkpt>
      <trkpt lat="43.38853" lon="0.7883">
        <ele>201.3</ele>
        <time>2018-11-21T10:52:24.000Z</time>
      </trkpt>
      <trkpt lat="43.38831" lon="0.7879">
        <ele>201.2</ele>
        <time>2018-11-21T10:52:59.000Z</time>
      </trkpt>
      <trkpt lat="43.38804" lon="0.78756">
        <ele>201.5</ele>
        <time>2018-11-21T10:53:34.000Z</time>
      </trkpt>
      <trkpt lat="43.38774" lon="0.78726">
        <ele>201.8</ele>
        <time>2018-11-21T10:54:7.000Z</time>
      </trkpt>
      <trkpt lat="43.38744" lon="0.78696">
        <ele>202.1</ele>
        <time>2018-11-21T10:54:38.000Z</time>
      </trkpt>
      <trkpt lat="43.38713" lon="0.78669">
        <ele>203.2</ele>
        <time>2018-11-21T10:55:11.000Z</time>
      </trkpt>
      <trkpt lat="43.38683" lon="0.78642">
        <ele>205</ele>
        <time>2018-11-21T10:55:45.000Z</time>
      </trkpt>
      <trkpt lat="43.38656" lon="0.78609">
        <ele>205.7</ele>
        <time>2018-11-21T10:56:21.000Z</time>
      </trkpt>
      <trkpt lat="43.38627" lon="0.78579">
        <ele>206.6</ele>
        <time>2018-11-21T10:56:55.000Z</time>
      </trkpt>
      <trkpt lat="43.38602" lon="0.78542">
        <ele>207.3</ele>
        <time>2018-11-21T10:57:37.000Z</time>
      </trkpt>
      <trkpt lat="43.38583" lon="0.78498">
        <ele>207.3</ele>
        <time>2018-11-21T10:58:14.000Z</time>
      </trkpt>
      <trkpt lat="43.38558" lon="0.78461">
        <ele>207.8</ele>
        <time>2018-11-21T10:58:51.000Z</time>
      </trkpt>
      <trkpt lat="43.38544" lon="0.78415">
        <ele>207.8</ele>
        <time>2018-11-21T11:00:59.000Z</time>
      </trkpt>
      <trkpt lat="43.38529" lon="0.78369">
        <ele>207.1</ele>
        <time>2018-11-21T11:01:35.000Z</time>
      </trkpt>
      <trkpt lat="43.38511" lon="0.78324">
        <ele>206.2</ele>
        <time>2018-11-21T11:02:13.000Z</time>
      </trkpt>
      <trkpt lat="43.38487" lon="0.78287">
        <ele>205.6</ele>
        <time>2018-11-21T11:02:44.000Z</time>
      </trkpt>
      <trkpt lat="43.38457" lon="0.78258">
        <ele>205.5</ele>
        <time>2018-11-21T11:03:18.000Z</time>
      </trkpt>
      <trkpt lat="43.38434" lon="0.7822">
        <ele>208.1</ele>
        <time>2018-11-21T11:04:4.000Z</time>
      </trkpt>
      <trkpt lat="43.38414" lon="0.78177">
        <ele>207.3</ele>
        <time>2018-11-21T11:04:44.000Z</time>
      </trkpt>
      <trkpt lat="43.38397" lon="0.78133">
        <ele>204.6</ele>
        <time>2018-11-21T11:05:17.000Z</time>
      </trkpt>
      <trkpt lat="43.38378" lon="0.78091">
        <ele>204.1</ele>
        <time>2018-11-21T11:05:50.000Z</time>
      </trkpt>
      <trkpt lat="43.38358" lon="0.78049">
        <ele>204</ele>
        <time>2018-11-21T11:06:25.000Z</time>
      </trkpt>
      <trkpt lat="43.3834" lon="0.78005">
        <ele>203.7</ele>
        <time>2018-11-21T11:06:59.000Z</time>
      </trkpt>
      <trkpt lat="43.38321" lon="0.77961">
        <ele>202.5</ele>
        <time>2018-11-21T11:07:32.000Z</time>
      </trkpt>
      <trkpt lat="43.38305" lon="0.77917">
        <ele>202.1</ele>
        <time>2018-11-21T11:08:6.000Z</time>
      </trkpt>
      <trkpt lat="43.38286" lon="0.77873">
        <ele>201.7</ele>
        <time>2018-11-21T11:08:41.000Z</time>
      </trkpt>
      <trkpt lat="43.38268" lon="0.7783">
        <ele>201.6</ele>
        <time>2018-11-21T11:09:13.000Z</time>
      </trkpt>
      <trkpt lat="43.3825" lon="0.77785">
        <ele>201.9</ele>
        <time>2018-11-21T11:09:46.000Z</time>
      </trkpt>
      <trkpt lat="43.38232" lon="0.77741">
        <ele>202.2</ele>
        <time>2018-11-21T11:10:19.000Z</time>
      </trkpt>
      <trkpt lat="43.38214" lon="0.77698">
        <ele>203.2</ele>
        <time>2018-11-21T11:10:52.000Z</time>
      </trkpt>
      <trkpt lat="43.38199" lon="0.77652">
        <ele>203.3</ele>
        <time>2018-11-21T11:11:26.000Z</time>
      </trkpt>
      <trkpt lat="43.38182" lon="0.77608">
        <ele>203.1</ele>
        <time>2018-11-21T11:12:1.000Z</time>
      </trkpt>
      <trkpt lat="43.38169" lon="0.77561">
        <ele>203.1</ele>
        <time>2018-11-21T11:12:36.000Z</time>
      </trkpt>
      <trkpt lat="43.38157" lon="0.77514">
        <ele>203.3</ele>
        <time>2018-11-21T11:13:8.000Z</time>
      </trkpt>
      <trkpt lat="43.38146" lon="0.77466">
        <ele>203.6</ele>
        <time>2018-11-21T11:13:41.000Z</time>
      </trkpt>
      <trkpt lat="43.38132" lon="0.77419">
        <ele>203.4</ele>
        <time>2018-11-21T11:14:14.000Z</time>
      </trkpt>
      <trkpt lat="43.38116" lon="0.77374">
        <ele>203.6</ele>
        <time>2018-11-21T11:14:44.000Z</time>
      </trkpt>
      <trkpt lat="43.38093" lon="0.77335">
        <ele>203.5</ele>
        <time>2018-11-21T11:15:18.000Z</time>
      </trkpt>
      <trkpt lat="43.38068" lon="0.77298">
        <ele>199.8</ele>
        <time>2018-11-21T11:20:2.000Z</time>
      </trkpt>
      <trkpt lat="43.38047" lon="0.77259">
        <ele>199.8</ele>
        <time>2018-11-21T11:20:24.000Z</time>
      </trkpt>
      <trkpt lat="43.38026" lon="0.77218">
        <ele>199.5</ele>
        <time>2018-11-21T11:20:49.000Z</time>
      </trkpt>
      <trkpt lat="43.38012" lon="0.77172">
        <ele>198.9</ele>
        <time>2018-11-21T11:21:13.000Z</time>
      </trkpt>
      <trkpt lat="43.37997" lon="0.77125">
        <ele>197.7</ele>
        <time>2018-11-21T11:21:40.000Z</time>
      </trkpt>
      <trkpt lat="43.37986" lon="0.77077">
        <ele>197</ele>
        <time>2018-11-21T11:22:4.000Z</time>
      </trkpt>
      <trkpt lat="43.37971" lon="0.7703">
        <ele>197.3</ele>
        <time>2018-11-21T11:22:29.000Z</time>
      </trkpt>
      <trkpt lat="43.37955" lon="0.76984">
        <ele>197</ele>
        <time>2018-11-21T11:22:53.000Z</time>
      </trkpt>
      <trkpt lat="43.37928" lon="0.76948">
        <ele>196.8</ele>
        <time>2018-11-21T11:23:18.000Z</time>
      </trkpt>
      <trkpt lat="43.37902" lon="0.76914">
        <ele>196.7</ele>
        <time>2018-11-21T11:23:39.000Z</time>
      </trkpt>
      <trkpt lat="43.37873" lon="0.76882">
        <ele>196.9</ele>
        <time>2018-11-21T11:24:4.000Z</time>
      </trkpt>
      <trkpt lat="43.3785" lon="0.76844">
        <ele>197.6</ele>
        <time>2018-11-21T11:24:34.000Z</time>
      </trkpt>
      <trkpt lat="43.37825" lon="0.76807">
        <ele>197.9</ele>
        <time>2018-11-21T11:25:6.000Z</time>
      </trkpt>
      <trkpt lat="43.37802" lon="0.76768">
        <ele>198.8</ele>
        <time>2018-11-21T11:25:35.000Z</time>
      </trkpt>
      <trkpt lat="43.37778" lon="0.7673">
        <ele>200</ele>
        <time>2018-11-21T11:26:5.000Z</time>
      </trkpt>
      <trkpt lat="43.37757" lon="0.76688">
        <ele>201.8</ele>
        <time>2018-11-21T11:26:35.000Z</time>
      </trkpt>
      <trkpt lat="43.37737" lon="0.76645">
        <ele>202.8</ele>
        <time>2018-11-21T11:27:4.000Z</time>
      </trkpt>
      <trkpt lat="43.37723" lon="0.76599">
        <ele>203.5</ele>
        <time>2018-11-21T11:27:34.000Z</time>
      </trkpt>
      <trkpt lat="43.37712" lon="0.7655">
        <ele>201.8</ele>
        <time>2018-11-21T11:28:8.000Z</time>
      </trkpt>
      <trkpt lat="43.37683" lon="0.76518">
        <ele>201.4</ele>
        <time>2018-11-21T11:28:47.000Z</time>
      </trkpt>
      <trkpt lat="43.37651" lon="0.76496">
        <ele>203.5</ele>
        <time>2018-11-21T11:29:31.000Z</time>
      </trkpt>
      <trkpt lat="43.37614" lon="0.76494">
        <ele>207.5</ele>
        <time>2018-11-21T11:30:16.000Z</time>
      </trkpt>
      <trkpt lat="43.37578" lon="0.76499">
        <ele>211.9</ele>
        <time>2018-11-21T11:30:55.000Z</time>
      </trkpt>
      <trkpt lat="43.37543" lon="0.76512">
        <ele>218.1</ele>
        <time>2018-11-21T11:31:39.000Z</time>
      </trkpt>
      <trkpt lat="43.37507" lon="0.76525">
        <ele>224.3</ele>
        <time>2018-11-21T11:32:18.000Z</time>
      </trkpt>
      <trkpt lat="43.37473" lon="0.76542">
        <ele>230.4</ele>
        <time>2018-11-21T11:32:57.000Z</time>
      </trkpt>
      <trkpt lat="43.37437" lon="0.76543">
        <ele>238.4</ele>
        <time>2018-11-21T11:33:49.000Z</time>
      </trkpt>
      <trkpt lat="43.37401" lon="0.76551">
        <ele>246</ele>
        <time>2018-11-21T11:34:35.000Z</time>
      </trkpt>
      <trkpt lat="43.3737" lon="0.76577">
        <ele>253</ele>
        <time>2018-11-21T11:35:13.000Z</time>
      </trkpt>
      <trkpt lat="43.37337" lon="0.76597">
        <ele>261.9</ele>
        <time>2018-11-21T11:36:1.000Z</time>
      </trkpt>
      <trkpt lat="43.37334" lon="0.76547">
        <ele>265.4</ele>
        <time>2018-11-21T11:41:25.000Z</time>
      </trkpt>
      <trkpt lat="43.37349" lon="0.76501">
        <ele>265.6</ele>
        <time>2018-11-21T11:41:54.000Z</time>
      </trkpt>
      <trkpt lat="43.37351" lon="0.76451">
        <ele>266.9</ele>
        <time>2018-11-21T11:42:25.000Z</time>
      </trkpt>
      <trkpt lat="43.37373" lon="0.76411">
        <ele>271.3</ele>
        <time>2018-11-21T11:44:10.000Z</time>
      </trkpt>
      <trkpt lat="43.37384" lon="0.76363">
        <ele>273.7</ele>
        <time>2018-11-21T11:44:51.000Z</time>
      </trkpt>
      <trkpt lat="43.37369" lon="0.76317">
        <ele>274.8</ele>
        <time>2018-11-21T11:45:26.000Z</time>
      </trkpt>
      <trkpt lat="43.37335" lon="0.76298">
        <ele>276.8</ele>
        <time>2018-11-21T12:21:57.000Z</time>
      </trkpt>
      <trkpt lat="43.37313" lon="0.76338">
        <ele>274</ele>
        <time>2018-11-21T12:22:50.000Z</time>
      </trkpt>
      <trkpt lat="43.37311" lon="0.76388">
        <ele>271.6</ele>
        <time>2018-11-21T12:23:26.000Z</time>
      </trkpt>
      <trkpt lat="43.37291" lon="0.76431">
        <ele>267.8</ele>
        <time>2018-11-21T12:24:4.000Z</time>
      </trkpt>
      <trkpt lat="43.37256" lon="0.76446">
        <ele>265.6</ele>
        <time>2018-11-21T12:24:25.000Z</time>
      </trkpt>
      <trkpt lat="43.37218" lon="0.76449">
        <ele>262.2</ele>
        <time>2018-11-21T12:24:52.000Z</time>
      </trkpt>
      <trkpt lat="43.37183" lon="0.76459">
        <ele>256.4</ele>
        <time>2018-11-21T12:25:32.000Z</time>
      </trkpt>
      <trkpt lat="43.37146" lon="0.76455">
        <ele>253.5</ele>
        <time>2018-11-21T12:26:2.000Z</time>
      </trkpt>
      <trkpt lat="43.37128" lon="0.76499">
        <ele>251.5</ele>
        <time>2018-11-21T12:26:29.000Z</time>
      </trkpt>
      <trkpt lat="43.3711" lon="0.76544">
        <ele>248.4</ele>
        <time>2018-11-21T12:26:58.000Z</time>
      </trkpt>
      <trkpt lat="43.37097" lon="0.76592">
        <ele>245.2</ele>
        <time>2018-11-21T12:27:25.000Z</time>
      </trkpt>
      <trkpt lat="43.37071" lon="0.76627">
        <ele>242.8</ele>
        <time>2018-11-21T12:28:0.000Z</time>
      </trkpt>
      <trkpt lat="43.37044" lon="0.76661">
        <ele>241.2</ele>
        <time>2018-11-21T12:28:28.000Z</time>
      </trkpt>
      <trkpt lat="43.37037" lon="0.7671">
        <ele>241.2</ele>
        <time>2018-11-21T12:28:57.000Z</time>
      </trkpt>
      <trkpt lat="43.3703" lon="0.76759">
        <ele>241.6</ele>
        <time>2018-11-21T12:29:26.000Z</time>
      </trkpt>
      <trkpt lat="43.37027" lon="0.76809">
        <ele>242.3</ele>
        <time>2018-11-21T12:29:58.000Z</time>
      </trkpt>
      <trkpt lat="43.37023" lon="0.76859">
        <ele>243.5</ele>
        <time>2018-11-21T12:30:39.000Z</time>
      </trkpt>
      <trkpt lat="43.37011" lon="0.76906">
        <ele>244.4</ele>
        <time>2018-11-21T12:31:9.000Z</time>
      </trkpt>
      <trkpt lat="43.37011" lon="0.76956">
        <ele>245.7</ele>
        <time>2018-11-21T12:31:44.000Z</time>
      </trkpt>
      <trkpt lat="43.37007" lon="0.77005">
        <ele>247.9</ele>
        <time>2018-11-21T12:32:16.000Z</time>
      </trkpt>
      <trkpt lat="43.37008" lon="0.77055">
        <ele>249.1</ele>
        <time>2018-11-21T12:32:47.000Z</time>
      </trkpt>
      <trkpt lat="43.37017" lon="0.77104">
        <ele>250.2</ele>
        <time>2018-11-21T12:33:23.000Z</time>
      </trkpt>
      <trkpt lat="43.37024" lon="0.77153">
        <ele>249.6</ele>
        <time>2018-11-21T12:33:55.000Z</time>
      </trkpt>
      <trkpt lat="43.37031" lon="0.77203">
        <ele>248.4</ele>
        <time>2018-11-21T12:34:25.000Z</time>
      </trkpt>
      <trkpt lat="43.37039" lon="0.77253">
        <ele>248.1</ele>
        <time>2018-11-21T12:34:56.000Z</time>
      </trkpt>
      <trkpt lat="43.37038" lon="0.77303">
        <ele>248.5</ele>
        <time>2018-11-21T12:35:27.000Z</time>
      </trkpt>
      <trkpt lat="43.37029" lon="0.77352">
        <ele>245.9</ele>
        <time>2018-11-21T12:37:59.000Z</time>
      </trkpt>
      <trkpt lat="43.37015" lon="0.77398">
        <ele>245.7</ele>
        <time>2018-11-21T12:38:30.000Z</time>
      </trkpt>
      <trkpt lat="43.37" lon="0.77444">
        <ele>244.3</ele>
        <time>2018-11-21T12:39:0.000Z</time>
      </trkpt>
      <trkpt lat="43.36985" lon="0.7749">
        <ele>241.5</ele>
        <time>2018-11-21T12:39:31.000Z</time>
      </trkpt>
      <trkpt lat="43.36968" lon="0.77535">
        <ele>237.5</ele>
        <time>2018-11-21T12:40:3.000Z</time>
      </trkpt>
      <trkpt lat="43.36958" lon="0.77584">
        <ele>234.1</ele>
        <time>2018-11-21T12:40:36.000Z</time>
      </trkpt>
      <trkpt lat="43.36946" lon="0.77632">
        <ele>231.2</ele>
        <time>2018-11-21T12:41:8.000Z</time>
      </trkpt>
      <trkpt lat="43.36934" lon="0.77679">
        <ele>228.3</ele>
        <time>2018-11-21T12:41:43.000Z</time>
      </trkpt>
      <trkpt lat="43.36926" lon="0.77727">
        <ele>225.5</ele>
        <time>2018-11-21T12:42:16.000Z</time>
      </trkpt>
      <trkpt lat="43.36913" lon="0.77774">
        <ele>224</ele>
        <time>2018-11-21T12:42:50.000Z</time>
      </trkpt>
      <trkpt lat="43.36903" lon="0.77823">
        <ele>221.9</ele>
        <time>2018-11-21T12:43:20.000Z</time>
      </trkpt>
      <trkpt lat="43.36897" lon="0.77873">
        <ele>219.7</ele>
        <time>2018-11-21T12:43:51.000Z</time>
      </trkpt>
      <trkpt lat="43.36897" lon="0.77923">
        <ele>217.4</ele>
        <time>2018-11-21T12:44:23.000Z</time>
      </trkpt>
      <trkpt lat="43.36896" lon="0.77972">
        <ele>214.5</ele>
        <time>2018-11-21T12:44:55.000Z</time>
      </trkpt>
      <trkpt lat="43.36896" lon="0.78022">
        <ele>211.6</ele>
        <time>2018-11-21T12:45:29.000Z</time>
      </trkpt>
      <trkpt lat="43.36893" lon="0.78072">
        <ele>208.6</ele>
        <time>2018-11-21T12:46:2.000Z</time>
      </trkpt>
      <trkpt lat="43.36899" lon="0.78121">
        <ele>203.9</ele>
        <time>2018-11-21T12:46:37.000Z</time>
      </trkpt>
      <trkpt lat="43.36906" lon="0.78171">
        <ele>201.8</ele>
        <time>2018-11-21T12:47:9.000Z</time>
      </trkpt>
      <trkpt lat="43.36904" lon="0.78221">
        <ele>202.3</ele>
        <time>2018-11-21T12:47:38.000Z</time>
      </trkpt>
      <trkpt lat="43.36915" lon="0.78269">
        <ele>200.8</ele>
        <time>2018-11-21T12:48:7.000Z</time>
      </trkpt>
      <trkpt lat="43.36926" lon="0.78316">
        <ele>199</ele>
        <time>2018-11-21T12:48:34.000Z</time>
      </trkpt>
      <trkpt lat="43.36917" lon="0.78365">
        <ele>197.2</ele>
        <time>2018-11-21T12:49:7.000Z</time>
      </trkpt>
      <trkpt lat="43.36894" lon="0.78406">
        <ele>196.5</ele>
        <time>2018-11-21T12:49:34.000Z</time>
      </trkpt>
      <trkpt lat="43.36886" lon="0.78454">
        <ele>196.2</ele>
        <time>2018-11-21T12:50:8.000Z</time>
      </trkpt>
      <trkpt lat="43.36888" lon="0.78504">
        <ele>195.2</ele>
        <time>2018-11-21T12:50:39.000Z</time>
      </trkpt>
      <trkpt lat="43.36891" lon="0.78553">
        <ele>194</ele>
        <time>2018-11-21T12:51:18.000Z</time>
      </trkpt>
      <trkpt lat="43.36886" lon="0.78603">
        <ele>192.8</ele>
        <time>2018-11-21T12:52:6.000Z</time>
      </trkpt>
      <trkpt lat="43.36875" lon="0.78651">
        <ele>193.6</ele>
        <time>2018-11-21T12:52:37.000Z</time>
      </trkpt>
      <trkpt lat="43.36866" lon="0.78699">
        <ele>194.4</ele>
        <time>2018-11-21T12:53:6.000Z</time>
      </trkpt>
      <trkpt lat="43.36856" lon="0.78747">
        <ele>195.3</ele>
        <time>2018-11-21T12:53:36.000Z</time>
      </trkpt>
      <trkpt lat="43.36844" lon="0.78794">
        <ele>196.6</ele>
        <time>2018-11-21T12:54:10.000Z</time>
      </trkpt>
      <trkpt lat="43.3685" lon="0.78844">
        <ele>198.2</ele>
        <time>2018-11-21T12:54:52.000Z</time>
      </trkpt>
      <trkpt lat="43.36848" lon="0.78895">
        <ele>202.8</ele>
        <time>2018-11-21T12:55:36.000Z</time>
      </trkpt>
      <trkpt lat="43.36848" lon="0.78946">
        <ele>207.8</ele>
        <time>2018-11-21T12:56:22.000Z</time>
      </trkpt>
      <trkpt lat="43.36845" lon="0.78995">
        <ele>213</ele>
        <time>2018-11-21T12:57:10.000Z</time>
      </trkpt>
      <trkpt lat="43.3684" lon="0.79045">
        <ele>220.2</ele>
        <time>2018-11-21T12:58:0.000Z</time>
      </trkpt>
      <trkpt lat="43.36835" lon="0.79095">
        <ele>225.9</ele>
        <time>2018-11-21T12:58:45.000Z</time>
      </trkpt>
      <trkpt lat="43.36834" lon="0.79146">
        <ele>232.1</ele>
        <time>2018-11-21T12:59:24.000Z</time>
      </trkpt>
      <trkpt lat="43.3682" lon="0.79192">
        <ele>240.4</ele>
        <time>2018-11-21T13:00:7.000Z</time>
      </trkpt>
      <trkpt lat="43.368" lon="0.79234">
        <ele>247.6</ele>
        <time>2018-11-21T13:00:40.000Z</time>
      </trkpt>
      <trkpt lat="43.36794" lon="0.79283">
        <ele>255.5</ele>
        <time>2018-11-21T13:01:17.000Z</time>
      </trkpt>
      <trkpt lat="43.36787" lon="0.79333">
        <ele>261.9</ele>
        <time>2018-11-21T13:07:58.000Z</time>
      </trkpt>
      <trkpt lat="43.36781" lon="0.79382">
        <ele>264.3</ele>
        <time>2018-11-21T13:08:40.000Z</time>
      </trkpt>
      <trkpt lat="43.36755" lon="0.79418">
        <ele>269.6</ele>
        <time>2018-11-21T13:09:23.000Z</time>
      </trkpt>
      <trkpt lat="43.36732" lon="0.79457">
        <ele>274.5</ele>
        <time>2018-11-21T13:10:0.000Z</time>
      </trkpt>
      <trkpt lat="43.36718" lon="0.79504">
        <ele>279.2</ele>
        <time>2018-11-21T13:10:37.000Z</time>
      </trkpt>
      <trkpt lat="43.36706" lon="0.79552">
        <ele>282.7</ele>
        <time>2018-11-21T13:11:12.000Z</time>
      </trkpt>
      <trkpt lat="43.36693" lon="0.79599">
        <ele>285.1</ele>
        <time>2018-11-21T13:11:43.000Z</time>
      </trkpt>
      <trkpt lat="43.36686" lon="0.79648">
        <ele>286.8</ele>
        <time>2018-11-21T13:12:13.000Z</time>
      </trkpt>
      <trkpt lat="43.3668" lon="0.79698">
        <ele>288.2</ele>
        <time>2018-11-21T13:12:45.000Z</time>
      </trkpt>
      <trkpt lat="43.36678" lon="0.79749">
        <ele>288.9</ele>
        <time>2018-11-21T13:13:19.000Z</time>
      </trkpt>
      <trkpt lat="43.36673" lon="0.79802">
        <ele>290.1</ele>
        <time>2018-11-21T13:13:54.000Z</time>
      </trkpt>
      <trkpt lat="43.36666" lon="0.79851">
        <ele>290.9</ele>
        <time>2018-11-21T13:14:25.000Z</time>
      </trkpt>
      <trkpt lat="43.36663" lon="0.799">
        <ele>291.2</ele>
        <time>2018-11-21T13:14:54.000Z</time>
      </trkpt>
      <trkpt lat="43.36675" lon="0.79951">
        <ele>291.6</ele>
        <time>2018-11-21T13:15:21.000Z</time>
      </trkpt>
      <trkpt lat="43.36678" lon="0.80001">
        <ele>292.5</ele>
        <time>2018-11-21T13:15:45.000Z</time>
      </trkpt>
      <trkpt lat="43.36678" lon="0.80051">
        <ele>293.8</ele>
        <time>2018-11-21T13:16:12.000Z</time>
      </trkpt>
      <trkpt lat="43.36671" lon="0.801">
        <ele>295</ele>
        <time>2018-11-21T13:16:43.000Z</time>
      </trkpt>
      <trkpt lat="43.3668" lon="0.80149">
        <ele>296.1</ele>
        <time>2018-11-21T13:17:15.000Z</time>
      </trkpt>
      <trkpt lat="43.36703" lon="0.80187">
        <ele>291.9</ele>
        <time>2018-11-21T13:18:0.000Z</time>
      </trkpt>
      <trkpt lat="43.36732" lon="0.80216">
        <ele>290.1</ele>
        <time>2018-11-21T13:18:29.000Z</time>
      </trkpt>
      <trkpt lat="43.36718" lon="0.80262">
        <ele>296.3</ele>
        <time>2018-11-21T13:21:56.000Z</time>
      </trkpt>
      <trkpt lat="43.36687" lon="0.80287">
        <ele>299.7</ele>
        <time>2018-11-21T13:22:34.000Z</time>
      </trkpt>
      <trkpt lat="43.36657" lon="0.80315">
        <ele>302.6</ele>
        <time>2018-11-21T13:23:7.000Z</time>
      </trkpt>
      <trkpt lat="43.36641" lon="0.8036">
        <ele>303.4</ele>
        <time>2018-11-21T13:23:44.000Z</time>
      </trkpt>
      <trkpt lat="43.3663" lon="0.80408">
        <ele>301.3</ele>
        <time>2018-11-21T13:24:16.000Z</time>
      </trkpt>
      <trkpt lat="43.36622" lon="0.80457">
        <ele>298</ele>
        <time>2018-11-21T13:24:55.000Z</time>
      </trkpt>
      <trkpt lat="43.36599" lon="0.80496">
        <ele>296.2</ele>
        <time>2018-11-21T13:25:39.000Z</time>
      </trkpt>
      <trkpt lat="43.36563" lon="0.80489">
        <ele>297.8</ele>
        <time>2018-11-21T13:26:9.000Z</time>
      </trkpt>
      <trkpt lat="43.36527" lon="0.80481">
        <ele>297.1</ele>
        <time>2018-11-21T13:26:43.000Z</time>
      </trkpt>
      <trkpt lat="43.36491" lon="0.80482">
        <ele>295.8</ele>
        <time>2018-11-21T13:27:18.000Z</time>
      </trkpt>
      <trkpt lat="43.36456" lon="0.80496">
        <ele>294.3</ele>
        <time>2018-11-21T13:27:52.000Z</time>
      </trkpt>
      <trkpt lat="43.36422" lon="0.80512">
        <ele>292.8</ele>
        <time>2018-11-21T13:28:25.000Z</time>
      </trkpt>
      <trkpt lat="43.36388" lon="0.80532">
        <ele>291.6</ele>
        <time>2018-11-21T13:29:1.000Z</time>
      </trkpt>
      <trkpt lat="43.36357" lon="0.8056">
        <ele>290.3</ele>
        <time>2018-11-21T13:29:35.000Z</time>
      </trkpt>
      <trkpt lat="43.36326" lon="0.80587">
        <ele>289.7</ele>
        <time>2018-11-21T13:30:5.000Z</time>
      </trkpt>
      <trkpt lat="43.36298" lon="0.80621">
        <ele>289.3</ele>
        <time>2018-11-21T13:30:37.000Z</time>
      </trkpt>
      <trkpt lat="43.36277" lon="0.80663">
        <ele>288.5</ele>
        <time>2018-11-21T13:31:4.000Z</time>
      </trkpt>
      <trkpt lat="43.36266" lon="0.8071">
        <ele>286.1</ele>
        <time>2018-11-21T13:31:36.000Z</time>
      </trkpt>
      <trkpt lat="43.36245" lon="0.80751">
        <ele>284</ele>
        <time>2018-11-21T13:32:7.000Z</time>
      </trkpt>
      <trkpt lat="43.36229" lon="0.80796">
        <ele>281</ele>
        <time>2018-11-21T13:32:36.000Z</time>
      </trkpt>
      <trkpt lat="43.36211" lon="0.80839">
        <ele>278.4</ele>
        <time>2018-11-21T13:33:5.000Z</time>
      </trkpt>
      <trkpt lat="43.36199" lon="0.80887">
        <ele>275.8</ele>
        <time>2018-11-21T13:33:36.000Z</time>
      </trkpt>
      <trkpt lat="43.36184" lon="0.80933">
        <ele>274.1</ele>
        <time>2018-11-21T13:34:6.000Z</time>
      </trkpt>
      <trkpt lat="43.36169" lon="0.8098">
        <ele>273.3</ele>
        <time>2018-11-21T13:34:38.000Z</time>
      </trkpt>
      <trkpt lat="43.36161" lon="0.81029">
        <ele>271.8</ele>
        <time>2018-11-21T13:35:3.000Z</time>
      </trkpt>
      <trkpt lat="43.36149" lon="0.81077">
        <ele>270</ele>
        <time>2018-11-21T13:35:33.000Z</time>
      </trkpt>
      <trkpt lat="43.3614" lon="0.81125">
        <ele>268.3</ele>
        <time>2018-11-21T13:36:3.000Z</time>
      </trkpt>
      <trkpt lat="43.36121" lon="0.81168">
        <ele>266.6</ele>
        <time>2018-11-21T13:36:42.000Z</time>
      </trkpt>
      <trkpt lat="43.36109" lon="0.81215">
        <ele>266</ele>
        <time>2018-11-21T13:37:16.000Z</time>
      </trkpt>
      <trkpt lat="43.36107" lon="0.81266">
        <ele>265.3</ele>
        <time>2018-11-21T13:37:42.000Z</time>
      </trkpt>
      <trkpt lat="43.36102" lon="0.81315">
        <ele>263.9</ele>
        <time>2018-11-21T13:38:10.000Z</time>
      </trkpt>
      <trkpt lat="43.36095" lon="0.81365">
        <ele>263.1</ele>
        <time>2018-11-21T13:38:37.000Z</time>
      </trkpt>
      <trkpt lat="43.3608" lon="0.81411">
        <ele>263.1</ele>
        <time>2018-11-21T13:39:12.000Z</time>
      </trkpt>
      <trkpt lat="43.36069" lon="0.81459">
        <ele>261.9</ele>
        <time>2018-11-21T13:39:45.000Z</time>
      </trkpt>
      <trkpt lat="43.3604" lon="0.8149">
        <ele>258.9</ele>
        <time>2018-11-21T13:40:17.000Z</time>
      </trkpt>
      <trkpt lat="43.36011" lon="0.81522">
        <ele>254.3</ele>
        <time>2018-11-21T13:40:46.000Z</time>
      </trkpt>
      <trkpt lat="43.35982" lon="0.81552">
        <ele>250.7</ele>
        <time>2018-11-21T13:41:16.000Z</time>
      </trkpt>
      <trkpt lat="43.35945" lon="0.81555">
        <ele>249.3</ele>
        <time>2018-11-21T13:41:47.000Z</time>
      </trkpt>
      <trkpt lat="43.35912" lon="0.81575">
        <ele>251.5</ele>
        <time>2018-11-21T13:44:23.000Z</time>
      </trkpt>
      <trkpt lat="43.35891" lon="0.81617">
        <ele>250.9</ele>
        <time>2018-11-21T13:44:57.000Z</time>
      </trkpt>
      <trkpt lat="43.35861" lon="0.81646">
        <ele>251.3</ele>
        <time>2018-11-21T13:45:29.000Z</time>
      </trkpt>
      <trkpt lat="43.35834" lon="0.81679">
        <ele>250.4</ele>
        <time>2018-11-21T13:46:5.000Z</time>
      </trkpt>
      <trkpt lat="43.35804" lon="0.81709">
        <ele>249.6</ele>
        <time>2018-11-21T13:46:34.000Z</time>
      </trkpt>
      <trkpt lat="43.35776" lon="0.8174">
        <ele>248.9</ele>
        <time>2018-11-21T13:47:0.000Z</time>
      </trkpt>
      <trkpt lat="43.35749" lon="0.81773">
        <ele>248.4</ele>
        <time>2018-11-21T13:47:35.000Z</time>
      </trkpt>
      <trkpt lat="43.35733" lon="0.81819">
        <ele>247.9</ele>
        <time>2018-11-21T13:48:1.000Z</time>
      </trkpt>
      <trkpt lat="43.35708" lon="0.81854">
        <ele>245.9</ele>
        <time>2018-11-21T13:48:31.000Z</time>
      </trkpt>
      <trkpt lat="43.35691" lon="0.81898">
        <ele>245</ele>
        <time>2018-11-21T13:49:42.000Z</time>
      </trkpt>
      <trkpt lat="43.35718" lon="0.81932">
        <ele>244.5</ele>
        <time>2018-11-21T13:50:19.000Z</time>
      </trkpt>
      <trkpt lat="43.35751" lon="0.81953">
        <ele>243.6</ele>
        <time>2018-11-21T13:50:55.000Z</time>
      </trkpt>
      <trkpt lat="43.35785" lon="0.8197">
        <ele>243.3</ele>
        <time>2018-11-21T13:51:24.000Z</time>
      </trkpt>
      <trkpt lat="43.35817" lon="0.81994">
        <ele>243.4</ele>
        <time>2018-11-21T13:51:54.000Z</time>
      </trkpt>
      <trkpt lat="43.35851" lon="0.82014">
        <ele>243.8</ele>
        <time>2018-11-21T13:52:23.000Z</time>
      </trkpt>
      <trkpt lat="43.35875" lon="0.82051">
        <ele>243.9</ele>
        <time>2018-11-21T13:53:1.000Z</time>
      </trkpt>
      <trkpt lat="43.35898" lon="0.82091">
        <ele>243.8</ele>
        <time>2018-11-21T13:53:33.000Z</time>
      </trkpt>
      <trkpt lat="43.35929" lon="0.82118">
        <ele>242.8</ele>
        <time>2018-11-21T13:54:3.000Z</time>
      </trkpt>
      <trkpt lat="43.35952" lon="0.82157">
        <ele>242.2</ele>
        <time>2018-11-21T13:54:31.000Z</time>
      </trkpt>
      <trkpt lat="43.35974" lon="0.82199">
        <ele>242.3</ele>
        <time>2018-11-21T13:55:9.000Z</time>
      </trkpt>
      <trkpt lat="43.35996" lon="0.8224">
        <ele>242.6</ele>
        <time>2018-11-21T13:55:36.000Z</time>
      </trkpt>
      <trkpt lat="43.36015" lon="0.82283">
        <ele>241.9</ele>
        <time>2018-11-21T13:56:10.000Z</time>
      </trkpt>
      <trkpt lat="43.36047" lon="0.82309">
        <ele>240.3</ele>
        <time>2018-11-21T13:56:41.000Z</time>
      </trkpt>
      <trkpt lat="43.36083" lon="0.82324">
        <ele>239.4</ele>
        <time>2018-11-21T13:57:13.000Z</time>
      </trkpt>
      <trkpt lat="43.36117" lon="0.82344">
        <ele>239.3</ele>
        <time>2018-11-21T13:57:40.000Z</time>
      </trkpt>
      <trkpt lat="43.36142" lon="0.8238">
        <ele>239.2</ele>
        <time>2018-11-21T13:58:10.000Z</time>
      </trkpt>
      <trkpt lat="43.36174" lon="0.82406">
        <ele>238.9</ele>
        <time>2018-11-21T13:58:39.000Z</time>
      </trkpt>
      <trkpt lat="43.36209" lon="0.82422">
        <ele>238.8</ele>
        <time>2018-11-21T13:59:9.000Z</time>
      </trkpt>
      <trkpt lat="43.36244" lon="0.82439">
        <ele>238.8</ele>
        <time>2018-11-21T13:59:38.000Z</time>
      </trkpt>
      <trkpt lat="43.36275" lon="0.82465">
        <ele>238.6</ele>
        <time>2018-11-21T14:00:10.000Z</time>
      </trkpt>
      <trkpt lat="43.36307" lon="0.82488">
        <ele>237.9</ele>
        <time>2018-11-21T14:00:41.000Z</time>
      </trkpt>
      <trkpt lat="43.36339" lon="0.82511">
        <ele>236.9</ele>
        <time>2018-11-21T14:01:14.000Z</time>
      </trkpt>
      <trkpt lat="43.36371" lon="0.82537">
        <ele>237.4</ele>
        <time>2018-11-21T14:01:44.000Z</time>
      </trkpt>
      <trkpt lat="43.36403" lon="0.82562">
        <ele>238.2</ele>
        <time>2018-11-21T14:02:10.000Z</time>
      </trkpt>
      <trkpt lat="43.36436" lon="0.82585">
        <ele>238.1</ele>
        <time>2018-11-21T14:02:39.000Z</time>
      </trkpt>
      <trkpt lat="43.36465" lon="0.82615">
        <ele>237.5</ele>
        <time>2018-11-21T14:03:10.000Z</time>
      </trkpt>
      <trkpt lat="43.36495" lon="0.82644">
        <ele>236.4</ele>
        <time>2018-11-21T14:03:43.000Z</time>
      </trkpt>
      <trkpt lat="43.36523" lon="0.82676">
        <ele>235.3</ele>
        <time>2018-11-21T14:04:11.000Z</time>
      </trkpt>
      <trkpt lat="43.36552" lon="0.82707">
        <ele>234.2</ele>
        <time>2018-11-21T14:04:41.000Z</time>
      </trkpt>
      <trkpt lat="43.36582" lon="0.82734">
        <ele>232.9</ele>
        <time>2018-11-21T14:05:11.000Z</time>
      </trkpt>
      <trkpt lat="43.36611" lon="0.82766">
        <ele>232</ele>
        <time>2018-11-21T14:05:40.000Z</time>
      </trkpt>
      <trkpt lat="43.36639" lon="0.82798">
        <ele>231.1</ele>
        <time>2018-11-21T14:06:8.000Z</time>
      </trkpt>
      <trkpt lat="43.36665" lon="0.82835">
        <ele>229.4</ele>
        <time>2018-11-21T14:08:6.000Z</time>
      </trkpt>
      <trkpt lat="43.36697" lon="0.82863">
        <ele>229.8</ele>
        <time>2018-11-21T14:08:35.000Z</time>
      </trkpt>
      <trkpt lat="43.36726" lon="0.82893">
        <ele>229.6</ele>
        <time>2018-11-21T14:09:0.000Z</time>
      </trkpt>
      <trkpt lat="43.36753" lon="0.82926">
        <ele>229.2</ele>
        <time>2018-11-21T14:09:29.000Z</time>
      </trkpt>
      <trkpt lat="43.36779" lon="0.82961">
        <ele>228.9</ele>
        <time>2018-11-21T14:09:53.000Z</time>
      </trkpt>
      <trkpt lat="43.368" lon="0.83002">
        <ele>228.6</ele>
        <time>2018-11-21T14:10:21.000Z</time>
      </trkpt>
      <trkpt lat="43.36828" lon="0.83035">
        <ele>228.2</ele>
        <time>2018-11-21T14:10:56.000Z</time>
      </trkpt>
      <trkpt lat="43.36857" lon="0.83066">
        <ele>227.4</ele>
        <time>2018-11-21T14:11:24.000Z</time>
      </trkpt>
      <trkpt lat="43.36885" lon="0.831">
        <ele>226.7</ele>
        <time>2018-11-21T14:11:56.000Z</time>
      </trkpt>
      <trkpt lat="43.36914" lon="0.83131">
        <ele>226.3</ele>
        <time>2018-11-21T14:12:26.000Z</time>
      </trkpt>
      <trkpt lat="43.3694" lon="0.83165">
        <ele>226</ele>
        <time>2018-11-21T14:12:55.000Z</time>
      </trkpt>
      <trkpt lat="43.36969" lon="0.83196">
        <ele>225.7</ele>
        <time>2018-11-21T14:13:25.000Z</time>
      </trkpt>
      <trkpt lat="43.37" lon="0.83221">
        <ele>225.3</ele>
        <time>2018-11-21T14:13:54.000Z</time>
      </trkpt>
      <trkpt lat="43.37033" lon="0.83242">
        <ele>224.9</ele>
        <time>2018-11-21T14:14:25.000Z</time>
      </trkpt>
      <trkpt lat="43.37067" lon="0.83262">
        <ele>224.8</ele>
        <time>2018-11-21T14:14:56.000Z</time>
      </trkpt>
      <trkpt lat="43.37099" lon="0.83286">
        <ele>224.6</ele>
        <time>2018-11-21T14:15:28.000Z</time>
      </trkpt>
      <trkpt lat="43.37134" lon="0.83301">
        <ele>224.2</ele>
        <time>2018-11-21T14:15:54.000Z</time>
      </trkpt>
      <trkpt lat="43.37171" lon="0.83294">
        <ele>223.6</ele>
        <time>2018-11-21T14:16:33.000Z</time>
      </trkpt>
      <trkpt lat="43.37207" lon="0.83296">
        <ele>223.6</ele>
        <time>2018-11-21T14:17:4.000Z</time>
      </trkpt>
      <trkpt lat="43.37238" lon="0.83322">
        <ele>223.3</ele>
        <time>2018-11-21T14:17:41.000Z</time>
      </trkpt>
      <trkpt lat="43.37272" lon="0.83342">
        <ele>222.4</ele>
        <time>2018-11-21T14:18:16.000Z</time>
      </trkpt>
      <trkpt lat="43.373" lon="0.8331">
        <ele>220.6</ele>
        <time>2018-11-21T14:21:25.000Z</time>
      </trkpt>
      <trkpt lat="43.3731" lon="0.83257">
        <ele>220.3</ele>
        <time>2018-11-21T14:22:1.000Z</time>
      </trkpt>
      <trkpt lat="43.37329" lon="0.83209">
        <ele>220.4</ele>
        <time>2018-11-21T14:22:53.000Z</time>
      </trkpt>
      <trkpt lat="43.37357" lon="0.83176">
        <ele>220.3</ele>
        <time>2018-11-21T14:23:13.000Z</time>
      </trkpt>
      <trkpt lat="43.37393" lon="0.83165">
        <ele>219.9</ele>
        <time>2018-11-21T14:23:54.000Z</time>
      </trkpt>
      <trkpt lat="43.37385" lon="0.83215">
        <ele>217.8</ele>
        <time>2018-11-21T14:24:41.000Z</time>
      </trkpt>
      <trkpt lat="43.3736" lon="0.83252">
        <ele>217.6</ele>
        <time>2018-11-21T14:25:16.000Z</time>
      </trkpt>
      <trkpt lat="43.37344" lon="0.83298">
        <ele>217.3</ele>
        <time>2018-11-21T14:25:50.000Z</time>
      </trkpt>
      <trkpt lat="43.37372" lon="0.83331">
        <ele>216.6</ele>
        <time>2018-11-21T14:26:21.000Z</time>
      </trkpt>
      <trkpt lat="43.37399" lon="0.83365">
        <ele>215.3</ele>
        <time>2018-11-21T14:26:59.000Z</time>
      </trkpt>
      <trkpt lat="43.37436" lon="0.83357">
        <ele>214.8</ele>
        <time>2018-11-21T14:27:25.000Z</time>
      </trkpt>
      <trkpt lat="43.37472" lon="0.83352">
        <ele>214.5</ele>
        <time>2018-11-21T14:27:53.000Z</time>
      </trkpt>
      <trkpt lat="43.37509" lon="0.83348">
        <ele>214.1</ele>
        <time>2018-11-21T14:28:26.000Z</time>
      </trkpt>
      <trkpt lat="43.37544" lon="0.83358">
        <ele>213.7</ele>
        <time>2018-11-21T14:28:58.000Z</time>
      </trkpt>
      <trkpt lat="43.37579" lon="0.83368">
        <ele>213.7</ele>
        <time>2018-11-21T14:29:29.000Z</time>
      </trkpt>
      <trkpt lat="43.37616" lon="0.83367">
        <ele>213.4</ele>
        <time>2018-11-21T14:30:4.000Z</time>
      </trkpt>
      <trkpt lat="43.37652" lon="0.83373">
        <ele>213</ele>
        <time>2018-11-21T14:30:42.000Z</time>
      </trkpt>
      <trkpt lat="43.37688" lon="0.83378">
        <ele>212.7</ele>
        <time>2018-11-21T14:31:12.000Z</time>
      </trkpt>
      <trkpt lat="43.37724" lon="0.83379">
        <ele>212.5</ele>
        <time>2018-11-21T14:31:41.000Z</time>
      </trkpt>
      <trkpt lat="43.3776" lon="0.83388">
        <ele>212.4</ele>
        <time>2018-11-21T14:32:29.000Z</time>
      </trkpt>
      <trkpt lat="43.37797" lon="0.83391">
        <ele>212.3</ele>
        <time>2018-11-21T14:32:58.000Z</time>
      </trkpt>
      <trkpt lat="43.37824" lon="0.83425">
        <ele>212</ele>
        <time>2018-11-21T14:33:48.000Z</time>
      </trkpt>
      <trkpt lat="43.37825" lon="0.83475">
        <ele>212</ele>
        <time>2018-11-21T14:34:19.000Z</time>
      </trkpt>
      <trkpt lat="43.3786" lon="0.83491">
        <ele>211.8</ele>
        <time>2018-11-21T14:34:50.000Z</time>
      </trkpt>
      <trkpt lat="43.37896" lon="0.83494">
        <ele>211.6</ele>
        <time>2018-11-21T14:35:20.000Z</time>
      </trkpt>
      <trkpt lat="43.37933" lon="0.83499">
        <ele>211.3</ele>
        <time>2018-11-21T14:35:55.000Z</time>
      </trkpt>
      <trkpt lat="43.37969" lon="0.83497">
        <ele>211.2</ele>
        <time>2018-11-21T14:36:24.000Z</time>
      </trkpt>
      <trkpt lat="43.38005" lon="0.83508">
        <ele>211.2</ele>
        <time>2018-11-21T14:36:52.000Z</time>
      </trkpt>
      <trkpt lat="43.38041" lon="0.83509">
        <ele>210.9</ele>
        <time>2018-11-21T14:37:27.000Z</time>
      </trkpt>
      <trkpt lat="43.38068" lon="0.83542">
        <ele>210.5</ele>
        <time>2018-11-21T14:38:1.000Z</time>
      </trkpt>
      <trkpt lat="43.38084" lon="0.83588">
        <ele>210.4</ele>
        <time>2018-11-21T14:38:32.000Z</time>
      </trkpt>
      <trkpt lat="43.38095" lon="0.83636">
        <ele>210.8</ele>
        <time>2018-11-21T14:39:10.000Z</time>
      </trkpt>
      <trkpt lat="43.38131" lon="0.83641">
        <ele>210.7</ele>
        <time>2018-11-21T14:39:51.000Z</time>
      </trkpt>
      <trkpt lat="43.38159" lon="0.83662">
        <ele>207.3</ele>
        <time>2018-11-21T14:47:34.000Z</time>
      </trkpt>
    </trkseg>
  </trk>
</gpx>